Time;durP1;ratioP1;P1;durP2;ratioP2;P2;SDS_P1;SDS_P2;PMS_P1;PMS_P2;Temp;Humidity;BMP_temperature;BMP_pressure;BME280_temperature;BME280_humidity;BME280_pressure;Samples;Min_cycle;Max_cycle;Signal;HPM_P1;HPM_P2
2023/03/11 00:00:55;;;;;;;2.05;1.38;;;0.60;99.90;;;;;;2074350;28;20198;-64
2023/03/11 00:02:00;;;;;;;1.50;1.10;;;0.70;99.90;;;;;;2085483;28;20201;-64
2023/03/11 00:03:06;;;;;;;2.03;1.17;;;0.80;99.90;;;;;;2085513;28;20209;-64
2023/03/11 00:04:09;;;;;;;1.40;1.30;;;0.70;99.90;;;;;;2072755;28;20185;-64
2023/03/11 00:05:37;;;;;;;2.92;2.15;;;0.70;99.90;;;;;;2081108;28;20185;-63
2023/03/11 00:06:43;;;;;;;2.42;2.22;;;0.70;99.90;;;;;;2077377;28;20173;-64
2023/03/11 00:07:48;;;;;;;1.65;1.35;;;0.60;99.90;;;;;;2078055;28;20236;-63
2023/03/11 00:08:54;;;;;;;1.23;1.10;;;0.50;99.90;;;;;;2073668;28;20195;-63
2023/03/11 00:10:00;;;;;;;1.85;1.40;;;0.50;99.90;;;;;;2077013;28;20181;-64
2023/03/11 00:11:04;;;;;;;3.15;1.30;;;0.50;99.90;;;;;;2084808;28;20181;-64
2023/03/11 00:12:06;;;;;;;1.75;1.33;;;0.50;99.90;;;;;;2074414;28;20598;-64
2023/03/11 00:13:15;;;;;;;3.67;3.30;;;0.50;99.90;;;;;;2084249;28;20185;-64
2023/03/11 00:14:20;;;;;;;3.70;1.75;;;0.50;99.90;;;;;;2085446;28;20588;-64
2023/03/11 00:15:27;;;;;;;2.15;1.25;;;0.40;99.90;;;;;;2081920;28;20205;-64
2023/03/11 00:16:33;;;;;;;1.75;1.45;;;0.40;99.90;;;;;;2085285;28;20197;-65
2023/03/11 00:17:39;;;;;;;3.42;1.65;;;0.40;99.90;;;;;;2085503;28;20201;-64
2023/03/11 00:18:49;;;;;;;1.25;1.08;;;0.40;99.90;;;;;;2082140;28;20531;-65
2023/03/11 00:19:55;;;;;;;1.80;1.30;;;0.40;99.90;;;;;;2085520;28;20194;-64
2023/03/11 00:21:01;;;;;;;1.83;1.73;;;0.40;99.90;;;;;;2085707;28;20210;-64
2023/03/11 00:22:04;;;;;;;1.50;1.23;;;0.40;99.90;;;;;;2085823;28;20702;-64
2023/03/11 00:23:11;;;;;;;1.52;1.42;;;0.40;99.90;;;;;;2085693;28;20185;-64
2023/03/11 00:24:17;;;;;;;2.08;1.52;;;0.40;99.90;;;;;;2085426;28;20177;-64
2023/03/11 00:25:25;;;;;;;1.58;1.48;;;0.40;99.90;;;;;;2086283;28;20279;-65
2023/03/11 00:26:31;;;;;;;1.90;1.80;;;0.40;99.90;;;;;;2085421;28;20177;-64
2023/03/11 00:27:37;;;;;;;2.40;1.50;;;0.40;99.90;;;;;;2068263;28;20782;-63
2023/03/11 00:28:42;;;;;;;2.35;1.75;;;0.40;99.90;;;;;;2069949;28;20314;-63
2023/03/11 00:29:48;;;;;;;2.35;1.42;;;0.40;99.90;;;;;;2083544;28;20599;-64
2023/03/11 00:30:54;;;;;;;1.67;1.42;;;0.30;99.90;;;;;;2081093;28;20311;-63
2023/03/11 00:31:59;;;;;;;2.75;1.55;;;0.30;99.90;;;;;;2077065;28;20256;-64
2023/03/11 00:33:04;;;;;;;1.60;1.35;;;0.30;99.90;;;;;;2068870;28;20194;-64
2023/03/11 00:34:09;;;;;;;1.33;1.23;;;0.30;99.90;;;;;;2070058;28;20179;-64
2023/03/11 00:35:22;;;;;;;1.92;1.67;;;0.30;99.90;;;;;;2085762;28;20320;-64
2023/03/11 00:36:32;;;;;;;1.38;1.20;;;0.30;99.90;;;;;;2076576;28;20584;-64
2023/03/11 00:37:38;;;;;;;1.70;1.30;;;0.30;99.90;;;;;;2076357;28;20264;-64
2023/03/11 00:38:44;;;;;;;1.95;1.30;;;0.30;99.90;;;;;;2069878;28;20742;-64
2023/03/11 00:39:50;;;;;;;1.60;1.20;;;0.30;99.90;;;;;;2074196;28;20218;-64
2023/03/11 00:40:55;;;;;;;2.10;1.58;;;0.20;99.90;;;;;;2085231;28;20199;-64
2023/03/11 00:42:02;;;;;;;1.80;1.50;;;0.20;99.90;;;;;;2064239;28;20240;-63
2023/03/11 00:43:04;;;;;;;2.58;1.25;;;0.10;99.90;;;;;;2065701;28;20215;-64
2023/03/11 00:44:09;;;;;;;2.97;1.25;;;0.20;99.90;;;;;;2087894;28;20255;-64
2023/03/11 00:45:15;;;;;;;1.75;1.30;;;0.20;99.90;;;;;;2076443;28;20295;-64
2023/03/11 00:46:21;;;;;;;1.40;1.27;;;0.20;99.90;;;;;;2073557;28;20201;-64
2023/03/11 00:47:26;;;;;;;3.03;1.30;;;0.20;99.90;;;;;;2072779;28;20170;-64
2023/03/11 00:48:32;;;;;;;3.03;1.83;;;0.20;99.90;;;;;;2082159;28;20193;-64
2023/03/11 00:49:38;;;;;;;6.13;5.72;;;0.20;99.90;;;;;;2085334;28;20176;-64
2023/03/11 00:50:44;;;;;;;1.85;1.35;;;0.10;99.90;;;;;;2085247;28;20180;-64
2023/03/11 00:51:49;;;;;;;1.73;1.63;;;0.00;99.90;;;;;;2084832;28;20192;-64
2023/03/11 00:52:56;;;;;;;1.85;1.40;;;0.00;99.90;;;;;;2084779;28;20257;-64
2023/03/11 00:54:01;;;;;;;2.83;1.63;;;0.00;99.90;;;;;;2085533;28;20193;-64
2023/03/11 00:55:05;;;;;;;1.70;1.30;;;0.00;99.90;;;;;;2085407;28;20185;-64
2023/03/11 00:56:14;;;;;;;1.48;1.33;;;0.10;99.90;;;;;;2085156;28;20238;-64
2023/03/11 00:57:20;;;;;;;2.25;1.75;;;0.10;99.90;;;;;;2082426;28;20561;-64
2023/03/11 00:58:27;;;;;;;2.47;1.70;;;0.20;99.90;;;;;;2084734;28;20196;-64
2023/03/11 00:59:34;;;;;;;3.05;1.63;;;0.10;99.90;;;;;;2081442;28;20203;-64
2023/03/11 01:00:40;;;;;;;2.13;1.80;;;0.10;99.90;;;;;;2074066;28;20797;-64
2023/03/11 01:01:46;;;;;;;2.00;1.55;;;0.10;99.90;;;;;;2069252;28;20181;-65
2023/03/11 01:02:54;;;;;;;2.03;1.83;;;0.00;99.90;;;;;;2065811;28;20169;-64
2023/03/11 01:03:59;;;;;;;1.58;1.45;;;0.10;99.90;;;;;;2077849;28;20216;-64
2023/03/11 01:05:05;;;;;;;1.98;1.70;;;0.10;99.90;;;;;;2084838;28;20193;-64
2023/03/11 01:06:10;;;;;;;2.38;1.90;;;0.10;99.90;;;;;;2081551;28;20709;-64
2023/03/11 01:07:15;;;;;;;6.78;3.90;;;0.10;99.90;;;;;;2075983;28;20209;-64
2023/03/11 01:08:21;;;;;;;3.63;3.05;;;0.00;99.90;;;;;;2077372;28;20174;-64
2023/03/11 01:09:27;;;;;;;3.72;1.73;;;0.00;99.90;;;;;;2081652;28;20184;-64
2023/03/11 01:10:36;;;;;;;7.43;6.97;;;0.00;99.90;;;;;;2085071;28;20235;-64
2023/03/11 01:11:41;;;;;;;6.50;6.10;;;-0.10;99.90;;;;;;2085208;28;20402;-63
2023/03/11 01:12:47;;;;;;;4.20;1.70;;;-0.10;99.90;;;;;;2085299;28;20188;-64
2023/03/11 01:13:53;;;;;;;5.40;2.45;;;0.00;99.90;;;;;;2085555;28;20226;-64
2023/03/11 01:15:00;;;;;;;2.78;1.88;;;0.00;99.90;;;;;;2076035;28;20196;-64
2023/03/11 01:16:06;;;;;;;3.47;2.28;;;0.00;99.90;;;;;;2076398;28;20181;-64
2023/03/11 01:17:09;;;;;;;5.43;2.50;;;0.00;99.90;;;;;;2086968;28;20190;-64
2023/03/11 01:18:15;;;;;;;2.55;2.17;;;0.10;99.90;;;;;;2084808;28;20626;-64
2023/03/11 01:19:20;;;;;;;2.30;1.75;;;0.00;99.90;;;;;;2081359;28;20248;-64
2023/03/11 01:20:27;;;;;;;2.85;1.70;;;0.00;99.90;;;;;;2084565;28;20183;-64
2023/03/11 01:21:32;;;;;;;3.78;3.20;;;0.00;99.90;;;;;;2084444;28;20189;-64
2023/03/11 01:22:38;;;;;;;2.17;1.65;;;0.00;99.90;;;;;;2085110;28;20613;-64
2023/03/11 01:23:44;;;;;;;2.30;2.03;;;0.00;99.90;;;;;;2084916;28;20184;-64
2023/03/11 01:24:50;;;;;;;2.55;1.80;;;0.00;99.90;;;;;;2085212;28;20172;-64
2023/03/11 01:25:55;;;;;;;3.70;2.03;;;0.00;99.90;;;;;;2084597;28;20192;-64
2023/03/11 01:27:01;;;;;;;2.08;1.83;;;0.00;99.90;;;;;;2084645;28;20199;-64
2023/03/11 01:28:07;;;;;;;2.58;1.80;;;0.00;99.90;;;;;;2075967;28;20954;-63
2023/03/11 01:29:09;;;;;;;3.50;2.75;;;0.00;99.90;;;;;;2070996;28;20300;-64
2023/03/11 01:30:20;;;;;;;2.25;1.98;;;0.10;99.90;;;;;;2074674;28;20185;-64
2023/03/11 01:31:22;;;;;;;1.85;1.52;;;0.10;99.90;;;;;;2075662;28;20251;-64
2023/03/11 01:32:27;;;;;;;3.95;1.60;;;0.00;99.90;;;;;;2073061;28;20244;-64
2023/03/11 01:33:32;;;;;;;1.98;1.55;;;0.10;99.90;;;;;;2084426;28;20186;-64
2023/03/11 01:34:38;;;;;;;2.00;1.60;;;0.10;99.90;;;;;;2084609;28;20169;-64
2023/03/11 01:35:45;;;;;;;2.88;1.85;;;0.20;99.90;;;;;;2080846;28;20951;-64
2023/03/11 01:36:49;;;;;;;2.65;2.20;;;0.10;99.90;;;;;;2075639;28;20241;-63
2023/03/11 01:37:55;;;;;;;2.65;2.05;;;0.10;99.90;;;;;;2076763;28;20992;-64
2023/03/11 01:39:00;;;;;;;5.38;4.97;;;0.10;99.90;;;;;;2080876;28;20728;-64
2023/03/11 01:40:05;;;;;;;2.50;2.03;;;0.00;99.90;;;;;;2084280;28;20295;-64
2023/03/11 01:41:11;;;;;;;2.67;1.90;;;0.00;99.90;;;;;;2084536;28;20205;-64
2023/03/11 01:42:15;;;;;;;4.10;2.00;;;0.00;99.90;;;;;;2080484;28;20295;-64
2023/03/11 01:43:38;;;;;;;4.53;2.35;;;0.10;99.90;;;;;;2075618;28;20185;-64
2023/03/11 01:44:43;;;;;;;1.98;1.73;;;0.10;99.90;;;;;;2074034;28;20177;-65
2023/03/11 01:45:48;;;;;;;3.97;2.25;;;0.10;99.90;;;;;;2076056;28;20174;-65
2023/03/11 01:46:57;;;;;;;2.70;2.33;;;0.10;99.90;;;;;;2077276;28;20201;-64
2023/03/11 01:48:03;;;;;;;3.85;2.22;;;0.10;99.90;;;;;;2084193;28;20189;-64
2023/03/11 01:49:10;;;;;;;4.90;4.45;;;0.20;99.90;;;;;;2084415;28;20664;-63
2023/03/11 01:50:15;;;;;;;3.85;3.40;;;0.10;99.90;;;;;;2084849;28;20229;-64
2023/03/11 01:51:22;;;;;;;4.68;2.55;;;0.00;99.90;;;;;;2076203;28;20183;-64
2023/03/11 01:52:25;;;;;;;2.60;2.40;;;0.00;99.90;;;;;;2069029;28;20235;-64
2023/03/11 01:53:31;;;;;;;7.55;6.82;;;-0.10;99.90;;;;;;2076633;28;20690;-64
2023/03/11 01:54:39;;;;;;;4.75;2.25;;;-0.10;99.90;;;;;;2067313;28;20245;-64
2023/03/11 01:55:44;;;;;;;2.78;2.17;;;-0.10;99.90;;;;;;2057919;28;20918;-64
2023/03/11 01:56:49;;;;;;;3.95;2.55;;;-0.10;99.90;;;;;;2068650;28;20224;-64
2023/03/11 01:57:54;;;;;;;4.70;4.30;;;-0.20;99.90;;;;;;2084565;28;20177;-64
2023/03/11 01:58:59;;;;;;;3.67;2.35;;;-0.30;99.90;;;;;;2084720;28;20176;-64
2023/03/11 02:00:08;;;;;;;5.60;3.13;;;-0.30;99.90;;;;;;2084352;28;20396;-64
2023/03/11 02:01:10;;;;;;;4.40;3.88;;;-0.30;99.90;;;;;;2084166;28;20180;-64
2023/03/11 02:02:25;;;;;;;3.78;2.20;;;-0.30;99.90;;;;;;2075505;28;20284;-64
2023/03/11 02:03:34;;;;;;;2.67;2.25;;;-0.30;99.90;;;;;;2074229;28;20308;-64
2023/03/11 02:04:40;;;;;;;3.83;2.30;;;-0.30;99.90;;;;;;2091816;28;20226;-64
2023/03/11 02:05:46;;;;;;;2.83;2.35;;;-0.30;99.90;;;;;;2077779;28;20188;-64
2023/03/11 02:06:51;;;;;;;2.78;2.00;;;-0.30;99.90;;;;;;2069153;28;20190;-64
2023/03/11 02:07:57;;;;;;;4.50;2.35;;;-0.30;99.90;;;;;;2076825;28;20197;-63
2023/03/11 02:09:02;;;;;;;4.22;2.60;;;-0.30;99.90;;;;;;2071903;28;20192;-64
2023/03/11 02:10:10;;;;;;;2.92;2.47;;;-0.30;99.90;;;;;;2077063;28;20247;-63
2023/03/11 02:11:22;;;;;;;3.45;2.28;;;-0.30;99.90;;;;;;2075702;28;20239;-64
2023/03/11 02:12:33;;;;;;;4.13;2.28;;;-0.40;99.90;;;;;;2075792;28;20201;-64
2023/03/11 02:13:40;;;;;;;3.20;2.00;;;-0.40;99.90;;;;;;2075456;28;20192;-64
2023/03/11 02:16:02;;;;;;;3.05;2.30;;;-0.50;99.90;;;;;;2092544;28;20567;-63
2023/03/11 02:17:04;;;;;;;3.40;2.20;;;-0.40;99.90;;;;;;2083713;28;20657;-64
2023/03/11 02:18:13;;;;;;;5.20;2.45;;;-0.50;99.90;;;;;;2075906;28;20266;-63
2023/03/11 02:20:08;;;;;;;3.60;2.40;;;-0.40;99.90;;;;;;2076812;28;20243;-64
2023/03/11 02:21:22;;;;;;;2.70;2.40;;;-0.40;99.90;;;;;;2081954;28;20196;-64
2023/03/11 02:22:32;;;;;;;3.72;2.05;;;-0.40;99.90;;;;;;2082230;28;20292;-64
2023/03/11 02:24:10;;;;;;;2.30;2.10;;;-0.30;99.90;;;;;;2080158;28;20180;-63
2023/03/11 02:25:34;;;;;;;4.60;3.05;;;-0.30;99.90;;;;;;2081403;28;20205;-63
2023/03/11 02:26:56;;;;;;;3.05;2.75;;;-0.40;99.90;;;;;;2081909;28;20196;-63
2023/03/11 02:28:07;;;;;;;5.60;2.50;;;-0.50;99.90;;;;;;2081382;28;20653;-63
2023/03/11 02:29:10;;;;;;;3.78;2.85;;;-0.50;99.90;;;;;;2083080;28;20307;-63
2023/03/11 02:30:16;;;;;;;3.10;2.40;;;-0.50;99.90;;;;;;2072256;28;20268;-64
2023/03/11 02:31:20;;;;;;;4.22;2.97;;;-0.50;99.90;;;;;;2083137;28;20188;-63
2023/03/11 02:32:26;;;;;;;4.18;2.35;;;-0.60;99.90;;;;;;2083358;28;20303;-63
2023/03/11 02:33:32;;;;;;;4.40;2.30;;;-0.60;99.90;;;;;;2075491;28;20268;-64
2023/03/11 02:34:38;;;;;;;3.95;3.03;;;-0.60;99.90;;;;;;2076378;28;20190;-64
2023/03/11 02:35:42;;;;;;;3.72;2.50;;;-0.50;99.90;;;;;;2083405;28;20208;-64
2023/03/11 02:36:48;;;;;;;3.88;2.30;;;-0.50;99.90;;;;;;2080222;28;20188;-64
2023/03/11 02:37:53;;;;;;;4.22;2.17;;;-0.50;99.90;;;;;;2083325;28;20180;-63
2023/03/11 02:38:59;;;;;;;4.03;2.30;;;-0.50;99.90;;;;;;2083467;28;20574;-64
2023/03/11 02:40:22;;;;;;;5.50;2.45;;;-0.50;99.90;;;;;;2080024;28;20667;-64
2023/03/11 02:41:28;;;;;;;3.05;2.17;;;-0.50;99.90;;;;;;2079960;28;20238;-63
2023/03/11 02:42:33;;;;;;;4.15;2.20;;;-0.60;99.90;;;;;;2082657;28;20260;-64
2023/03/11 02:43:42;;;;;;;4.53;2.65;;;-0.60;99.90;;;;;;2075842;28;20190;-63
2023/03/11 02:45:07;;;;;;;2.28;2.00;;;-0.60;99.90;;;;;;2074363;28;20267;-63
2023/03/11 02:46:11;;;;;;;3.33;2.75;;;-0.50;99.90;;;;;;2080616;28;20196;-63
2023/03/11 02:47:16;;;;;;;6.07;2.35;;;-0.60;99.90;;;;;;2083881;28;20197;-64
2023/03/11 02:48:21;;;;;;;3.40;2.30;;;-0.60;99.90;;;;;;2083199;28;20188;-64
2023/03/11 02:49:26;;;;;;;3.30;2.25;;;-0.60;99.90;;;;;;2079376;28;20353;-63
2023/03/11 02:50:33;;;;;;;3.75;2.55;;;-0.70;99.90;;;;;;2083413;28;20555;-62
2023/03/11 02:51:39;;;;;;;5.90;2.33;;;-0.60;99.90;;;;;;2082747;28;20261;-64
2023/03/11 02:52:48;;;;;;;3.28;2.95;;;-0.50;99.90;;;;;;2079441;28;20583;-63
2023/03/11 02:53:55;;;;;;;3.03;2.40;;;-0.60;99.90;;;;;;2082912;28;20624;-63
2023/03/11 02:55:02;;;;;;;4.85;2.00;;;-0.60;99.90;;;;;;2082837;28;20181;-64
2023/03/11 02:56:06;;;;;;;3.60;2.10;;;-0.60;99.90;;;;;;2083414;28;20186;-63
2023/03/11 02:57:09;;;;;;;4.72;4.35;;;-0.60;99.90;;;;;;2083797;28;20213;-64
2023/03/11 02:58:14;;;;;;;2.88;2.10;;;-0.60;99.90;;;;;;2083946;28;20181;-63
2023/03/11 02:59:20;;;;;;;3.55;2.42;;;-0.70;99.90;;;;;;2080112;28;20184;-63
2023/03/11 03:00:26;;;;;;;3.22;2.92;;;-0.70;99.90;;;;;;2082798;28;20677;-63
2023/03/11 03:01:31;;;;;;;2.85;1.90;;;-0.70;99.90;;;;;;2082769;28;20182;-64
2023/03/11 03:02:36;;;;;;;3.00;2.35;;;-0.80;99.90;;;;;;2080117;28;20189;-63
2023/03/11 03:03:42;;;;;;;3.65;2.00;;;-0.70;99.90;;;;;;2083217;28;20196;-63
2023/03/11 03:04:47;;;;;;;4.85;2.08;;;-0.70;99.90;;;;;;2086289;28;20242;-64
2023/03/11 03:05:53;;;;;;;2.28;1.83;;;-0.70;99.90;;;;;;2079149;28;20223;-64
2023/03/11 03:06:58;;;;;;;2.80;1.90;;;-0.60;99.90;;;;;;2082877;28;20735;-64
2023/03/11 03:08:04;;;;;;;2.70;2.00;;;-0.70;99.90;;;;;;2083462;28;20249;-64
2023/03/11 03:09:09;;;;;;;2.53;2.15;;;-0.60;99.90;;;;;;2079777;28;20199;-63
2023/03/11 03:10:16;;;;;;;3.13;1.88;;;-0.70;99.90;;;;;;2081293;28;20174;-63
2023/03/11 03:11:20;;;;;;;5.30;2.33;;;-0.70;99.90;;;;;;2083758;28;20214;-62
2023/03/11 03:12:26;;;;;;;3.03;2.08;;;-0.70;99.90;;;;;;2079619;28;20238;-63
2023/03/11 03:13:31;;;;;;;3.10;2.20;;;-0.70;99.90;;;;;;2082520;28;20207;-63
2023/03/11 03:14:37;;;;;;;1.85;1.67;;;-0.70;99.90;;;;;;2082818;28;20698;-63
2023/03/11 03:15:42;;;;;;;2.83;2.20;;;-0.70;99.90;;;;;;2079198;28;20890;-63
2023/03/11 03:16:48;;;;;;;4.82;2.60;;;-0.60;99.90;;;;;;2083127;28;20598;-63
2023/03/11 03:17:53;;;;;;;2.55;1.98;;;-0.60;99.90;;;;;;2082859;28;20189;-64
2023/03/11 03:18:56;;;;;;;2.65;1.85;;;-0.70;99.90;;;;;;2083255;28;20757;-63
2023/03/11 03:20:04;;;;;;;2.95;1.80;;;-0.60;99.90;;;;;;2080180;28;20566;-63
2023/03/11 03:21:09;;;;;;;5.15;2.35;;;-0.60;99.90;;;;;;2083217;28;20275;-63
2023/03/11 03:22:15;;;;;;;3.80;1.83;;;-0.60;99.90;;;;;;2083252;28;20645;-63
2023/03/11 03:23:20;;;;;;;4.32;2.20;;;-0.60;99.90;;;;;;2078503;28;20862;-64
2023/03/11 03:24:25;;;;;;;2.92;1.95;;;-0.60;99.90;;;;;;2078731;28;20224;-63
2023/03/11 03:25:31;;;;;;;3.15;1.90;;;-0.60;99.90;;;;;;2083599;28;20197;-64
2023/03/11 03:26:36;;;;;;;4.22;2.05;;;-0.70;99.90;;;;;;2082873;28;20197;-62
2023/03/11 03:27:42;;;;;;;5.35;2.50;;;-0.70;99.90;;;;;;2077496;28;20196;-63
2023/03/11 03:28:47;;;;;;;2.28;1.80;;;-0.70;99.90;;;;;;2078006;28;20189;-64
2023/03/11 03:29:52;;;;;;;5.13;2.33;;;-0.70;99.90;;;;;;2077591;28;20235;-64
2023/03/11 03:31:07;;;;;;;2.67;1.75;;;-0.80;99.90;;;;;;2077815;28;20189;-64
2023/03/11 03:32:08;;;;;;;2.75;2.45;;;-0.70;99.90;;;;;;2073124;28;20255;-63
2023/03/11 03:33:14;;;;;;;2.40;2.10;;;-0.70;99.90;;;;;;2076995;28;20181;-64
2023/03/11 03:34:20;;;;;;;4.88;2.50;;;-0.80;99.90;;;;;;2078693;28;20304;-63
2023/03/11 03:35:26;;;;;;;2.72;2.13;;;-0.90;99.90;;;;;;2078062;28;20206;-63
2023/03/11 03:36:31;;;;;;;3.17;2.08;;;-0.80;99.90;;;;;;2076458;28;20281;-64
2023/03/11 03:37:38;;;;;;;2.28;1.60;;;-0.70;99.90;;;;;;2077765;28;20182;-63
2023/03/11 03:38:44;;;;;;;3.15;2.10;;;-0.70;99.90;;;;;;2082100;28;20185;-63
2023/03/11 03:39:49;;;;;;;2.78;1.80;;;-0.70;99.90;;;;;;2073523;28;20191;-63
2023/03/11 03:40:55;;;;;;;3.80;1.80;;;-0.60;99.90;;;;;;2073934;28;20177;-64
2023/03/11 03:41:57;;;;;;;2.42;1.70;;;-0.50;99.90;;;;;;2075528;28;20205;-64
2023/03/11 03:43:03;;;;;;;2.05;1.83;;;-0.50;99.90;;;;;;2075195;28;20794;-66
2023/03/11 03:44:08;;;;;;;2.53;1.70;;;-0.50;99.90;;;;;;2078129;28;20272;-64
2023/03/11 03:45:10;;;;;;;2.85;1.95;;;-0.60;99.90;;;;;;2078175;28;20176;-64
2023/03/11 03:46:15;;;;;;;3.80;1.92;;;-0.60;99.90;;;;;;2074353;28;20184;-64
2023/03/11 03:47:20;;;;;;;6.32;2.63;;;-0.60;99.90;;;;;;2079674;28;20186;-63
2023/03/11 03:48:25;;;;;;;4.20;2.10;;;-0.60;99.90;;;;;;2080215;28;20192;-63
2023/03/11 03:49:31;;;;;;;4.18;2.78;;;-0.70;99.90;;;;;;2077867;28;20224;-63
2023/03/11 03:50:38;;;;;;;5.38;2.53;;;-0.60;99.90;;;;;;2077596;28;20575;-63
2023/03/11 03:51:42;;;;;;;3.10;2.28;;;-0.70;99.90;;;;;;2073921;28;20196;-62
2023/03/11 03:52:47;;;;;;;2.47;1.83;;;-0.70;99.90;;;;;;2079058;28;20264;-63
2023/03/11 03:53:53;;;;;;;3.03;1.92;;;-0.70;99.90;;;;;;2077466;28;20192;-63
2023/03/11 03:54:58;;;;;;;2.92;1.90;;;-0.60;99.90;;;;;;2073402;28;20178;-63
2023/03/11 03:56:06;;;;;;;2.42;1.90;;;-0.60;99.90;;;;;;2077770;28;20231;-63
2023/03/11 03:57:09;;;;;;;2.65;1.83;;;-0.50;99.90;;;;;;2077742;28;20208;-63
2023/03/11 03:58:14;;;;;;;4.03;1.92;;;-0.60;99.90;;;;;;2076877;28;20177;-63
2023/03/11 03:59:20;;;;;;;3.45;1.80;;;-0.80;99.90;;;;;;2084833;28;20188;-63
2023/03/11 04:00:25;;;;;;;5.15;1.70;;;-0.70;99.90;;;;;;2081615;28;20204;-63
2023/03/11 04:01:31;;;;;;;2.28;1.60;;;-0.70;99.90;;;;;;2080629;28;20260;-63
2023/03/11 04:02:36;;;;;;;2.17;1.55;;;-0.80;99.90;;;;;;2081946;28;20190;-62
2023/03/11 04:03:42;;;;;;;3.35;1.88;;;-0.80;99.90;;;;;;2079892;28;20185;-63
2023/03/11 04:04:43;;;;;;;2.75;1.77;;;-0.80;99.90;;;;;;2084051;28;20274;-62
2023/03/11 04:05:48;;;;;;;2.65;1.92;;;-0.80;99.90;;;;;;2081117;28;20188;-63
2023/03/11 04:06:54;;;;;;;2.85;1.50;;;-0.80;99.90;;;;;;2082712;28;20196;-63
2023/03/11 04:07:59;;;;;;;3.17;1.73;;;-0.90;99.90;;;;;;2081622;28;20208;-62
2023/03/11 04:09:04;;;;;;;1.80;1.60;;;-0.90;99.90;;;;;;2078725;28;20204;-62
2023/03/11 04:10:12;;;;;;;3.38;1.50;;;-0.90;99.90;;;;;;2081513;28;20192;-62
2023/03/11 04:11:15;;;;;;;2.83;1.50;;;-0.90;99.90;;;;;;2080939;28;20195;-63
2023/03/11 04:12:21;;;;;;;2.50;1.35;;;-0.80;99.90;;;;;;2081215;28;20225;-63
2023/03/11 04:13:26;;;;;;;3.33;1.85;;;-0.90;99.90;;;;;;2082308;28;20214;-63
2023/03/11 04:14:31;;;;;;;2.45;1.52;;;-1.00;99.90;;;;;;2080326;28;20190;-63
2023/03/11 04:15:38;;;;;;;1.30;1.10;;;-1.10;99.90;;;;;;2082137;28;20213;-62
2023/03/11 04:16:43;;;;;;;3.05;1.50;;;-1.10;99.90;;;;;;2082276;28;20235;-63
2023/03/11 04:17:49;;;;;;;4.60;1.45;;;-1.10;99.90;;;;;;2081925;28;20198;-63
2023/03/11 04:18:54;;;;;;;2.15;1.60;;;-1.10;99.90;;;;;;2084526;28;20170;-62
2023/03/11 04:20:00;;;;;;;2.95;1.45;;;-1.10;99.90;;;;;;2082052;28;20181;-62
2023/03/11 04:21:06;;;;;;;5.45;1.23;;;-1.10;99.90;;;;;;2080620;28;20181;-63
2023/03/11 04:22:09;;;;;;;1.60;1.20;;;-1.10;99.90;;;;;;2077981;28;20284;-63
2023/03/11 04:23:15;;;;;;;1.10;1.00;;;-1.10;99.90;;;;;;2074670;28;20666;-63
2023/03/11 04:24:20;;;;;;;3.47;2.28;;;-1.10;99.90;;;;;;2078293;28;20200;-63
2023/03/11 04:25:26;;;;;;;2.15;1.40;;;-1.20;99.90;;;;;;2075069;28;20732;-62
2023/03/11 04:26:31;;;;;;;1.83;1.40;;;-1.20;99.90;;;;;;2080967;28;20246;-63
2023/03/11 04:27:44;;;;;;;3.95;1.52;;;-1.30;99.90;;;;;;2076876;28;20192;-63
2023/03/11 04:28:48;;;;;;;1.33;1.20;;;-1.30;99.90;;;;;;2081509;28;20182;-63
2023/03/11 04:29:53;;;;;;;5.30;1.83;;;-1.30;99.90;;;;;;2078582;28;20169;-63
2023/03/11 04:30:58;;;;;;;1.55;1.25;;;-1.30;99.90;;;;;;2082231;28;20292;-62
2023/03/11 04:32:05;;;;;;;2.25;1.38;;;-1.30;99.90;;;;;;2081205;28;20256;-63
2023/03/11 04:33:09;;;;;;;2.28;1.15;;;-1.30;99.90;;;;;;2076766;28;20235;-63
2023/03/11 04:34:14;;;;;;;1.55;1.45;;;-1.30;99.90;;;;;;2080110;28;20227;-63
2023/03/11 04:35:20;;;;;;;3.92;1.70;;;-1.30;99.90;;;;;;2080072;28;20258;-63
2023/03/11 04:36:25;;;;;;;3.78;1.50;;;-1.30;99.90;;;;;;2083479;28;20196;-63
2023/03/11 04:37:32;;;;;;;2.40;1.50;;;-1.30;99.90;;;;;;2080237;28;20186;-63
2023/03/11 04:38:38;;;;;;;3.25;1.75;;;-1.30;99.90;;;;;;2078468;28;20185;-63
2023/03/11 04:39:42;;;;;;;1.42;1.27;;;-1.30;99.90;;;;;;2083212;28;20197;-63
2023/03/11 04:40:48;;;;;;;2.88;1.60;;;-1.30;99.90;;;;;;2081849;28;20227;-63
2023/03/11 04:41:53;;;;;;;2.30;1.40;;;-1.40;99.90;;;;;;2077718;28;20220;-63
2023/03/11 04:42:59;;;;;;;2.60;1.48;;;-1.30;99.90;;;;;;2083561;28;20241;-63
2023/03/11 04:44:04;;;;;;;1.88;1.58;;;-1.30;99.90;;;;;;2079915;28;20181;-62
2023/03/11 04:45:10;;;;;;;3.63;1.70;;;-1.20;99.90;;;;;;2081349;28;20185;-63
2023/03/11 04:46:14;;;;;;;1.63;1.42;;;-1.20;99.90;;;;;;2081508;28;20174;-63
2023/03/11 04:47:20;;;;;;;2.60;1.42;;;-1.20;99.90;;;;;;2079489;28;20209;-63
2023/03/11 04:48:23;;;;;;;6.75;2.13;;;-1.20;99.90;;;;;;2080908;28;20223;-63
2023/03/11 04:49:27;;;;;;;4.22;1.40;;;-1.10;99.90;;;;;;2079434;28;20205;-63
2023/03/11 04:50:33;;;;;;;3.35;1.75;;;-1.10;99.90;;;;;;2076593;28;20192;-63
2023/03/11 04:51:38;;;;;;;3.45;1.55;;;-1.20;99.90;;;;;;2082558;28;20763;-63
2023/03/11 04:52:45;;;;;;;2.63;1.48;;;-1.20;99.90;;;;;;2081094;28;20253;-63
2023/03/11 04:53:49;;;;;;;3.80;1.60;;;-1.30;99.90;;;;;;2076377;28;20192;-63
2023/03/11 04:54:55;;;;;;;2.50;1.52;;;-1.20;99.90;;;;;;2068856;28;20186;-63
2023/03/11 04:56:00;;;;;;;2.95;1.40;;;-1.20;99.90;;;;;;2081284;28;20217;-63
2023/03/11 04:57:05;;;;;;;2.22;1.40;;;-1.20;99.90;;;;;;2080618;28;20182;-67
2023/03/11 04:58:09;;;;;;;2.10;1.33;;;-1.30;99.90;;;;;;2079703;28;20196;-62
2023/03/11 04:59:15;;;;;;;3.45;1.40;;;-1.40;99.90;;;;;;2080019;28;20202;-63
2023/03/11 05:00:23;;;;;;;3.30;1.75;;;-1.40;99.90;;;;;;2080316;28;20210;-64
2023/03/11 05:01:29;;;;;;;2.65;1.52;;;-1.50;99.90;;;;;;2079791;28;20181;-63
2023/03/11 05:02:34;;;;;;;3.67;1.50;;;-1.50;99.90;;;;;;2079824;28;20202;-62
2023/03/11 05:03:40;;;;;;;2.33;1.58;;;-1.60;99.90;;;;;;2079902;28;20591;-63
2023/03/11 05:04:45;;;;;;;2.35;1.65;;;-1.60;99.90;;;;;;2079083;28;20197;-63
2023/03/11 05:05:55;;;;;;;2.08;1.50;;;-1.70;99.90;;;;;;2079987;28;20188;-63
2023/03/11 05:06:59;;;;;;;1.73;1.40;;;-1.70;99.90;;;;;;2076589;28;20189;-63
2023/03/11 05:08:05;;;;;;;2.55;1.63;;;-1.70;99.90;;;;;;2079472;28;20192;-63
2023/03/11 05:09:09;;;;;;;2.05;1.75;;;-1.60;99.90;;;;;;2080484;28;20185;-63
2023/03/11 05:10:21;;;;;;;3.03;1.50;;;-1.70;99.90;;;;;;2080411;28;20213;-64
2023/03/11 05:11:26;;;;;;;2.03;1.52;;;-1.60;99.90;;;;;;2079912;28;20279;-63
2023/03/11 05:12:32;;;;;;;2.60;1.67;;;-1.70;99.90;;;;;;2079453;28;20227;-63
2023/03/11 05:13:37;;;;;;;5.70;1.90;;;-1.60;99.90;;;;;;2079547;28;20195;-64
2023/03/11 05:14:43;;;;;;;2.28;1.50;;;-1.70;99.90;;;;;;2077010;28;20249;-64
2023/03/11 05:15:48;;;;;;;3.80;1.60;;;-1.70;99.90;;;;;;2079706;28;20209;-64
2023/03/11 05:16:54;;;;;;;1.67;1.38;;;-1.70;99.90;;;;;;2078556;28;20193;-64
2023/03/11 05:17:59;;;;;;;4.05;1.70;;;-1.60;99.90;;;;;;2076970;28;20185;-64
2023/03/11 05:19:29;;;;;;;3.38;1.58;;;-1.60;99.90;;;;;;2073669;28;20185;-64
2023/03/11 05:20:31;;;;;;;3.55;1.60;;;-1.60;99.90;;;;;;2073518;28;20189;-64
2023/03/11 05:21:36;;;;;;;3.20;1.67;;;-1.60;99.90;;;;;;2076998;28;20216;-64
2023/03/11 05:22:42;;;;;;;4.30;2.00;;;-1.60;99.90;;;;;;2077059;28;20650;-64
2023/03/11 05:23:47;;;;;;;5.03;1.70;;;-1.70;99.90;;;;;;2070637;28;20671;-64
2023/03/11 05:24:53;;;;;;;4.80;1.50;;;-1.70;99.90;;;;;;2074001;28;20272;-63
2023/03/11 05:25:58;;;;;;;4.53;1.48;;;-1.60;99.90;;;;;;2070806;28;20226;-64
2023/03/11 05:27:04;;;;;;;2.35;1.30;;;-1.60;99.90;;;;;;2076794;28;20216;-64
2023/03/11 05:28:10;;;;;;;2.15;1.60;;;-1.50;99.90;;;;;;2076777;28;20560;-63
2023/03/11 05:29:14;;;;;;;2.30;1.45;;;-1.40;99.90;;;;;;2076915;28;20193;-63
2023/03/11 05:30:16;;;;;;;3.65;1.40;;;-1.30;99.90;;;;;;2076781;28;20201;-63
2023/03/11 05:31:21;;;;;;;3.13;1.70;;;-1.20;99.90;;;;;;2076876;28;20569;-64
2023/03/11 05:32:26;;;;;;;1.40;1.30;;;-1.20;99.90;;;;;;2076732;28;20206;-64
2023/03/11 05:33:34;;;;;;;2.13;1.40;;;-1.30;99.90;;;;;;2073252;28;20192;-63
2023/03/11 05:34:40;;;;;;;1.73;1.30;;;-1.30;99.90;;;;;;2076748;28;20308;-63
2023/03/11 05:35:45;;;;;;;2.42;1.52;;;-1.30;99.90;;;;;;2076707;28;20224;-64
2023/03/11 05:36:51;;;;;;;1.55;1.27;;;-1.30;99.90;;;;;;2076888;28;20272;-63
2023/03/11 05:37:56;;;;;;;2.55;1.38;;;-1.50;99.90;;;;;;2076902;28;20208;-64
2023/03/11 05:39:02;;;;;;;3.25;1.95;;;-1.50;99.90;;;;;;2077297;28;20177;-64
2023/03/11 05:40:08;;;;;;;1.75;1.50;;;-1.50;99.90;;;;;;2077984;28;20190;-63
2023/03/11 05:41:09;;;;;;;2.17;1.20;;;-1.50;99.90;;;;;;2076459;28;20263;-63
2023/03/11 05:42:15;;;;;;;2.55;1.40;;;-1.40;99.90;;;;;;2072851;28;20223;-63
2023/03/11 05:43:20;;;;;;;1.65;1.50;;;-1.40;99.90;;;;;;2076943;28;20198;-64
2023/03/11 05:44:26;;;;;;;3.33;1.10;;;-1.40;99.90;;;;;;2077015;28;20189;-64
2023/03/11 05:45:31;;;;;;;2.85;1.30;;;-1.40;99.90;;;;;;2076681;28;20193;-63
2023/03/11 05:46:37;;;;;;;2.05;1.30;;;-1.40;99.90;;;;;;2073583;28;20570;-63
2023/03/11 05:47:42;;;;;;;1.90;1.15;;;-1.40;99.90;;;;;;2076508;28;20263;-62
2023/03/11 05:48:48;;;;;;;4.00;1.20;;;-1.50;99.90;;;;;;2076780;28;20189;-64